sensor_id;sensor_type;location;lat;lon;timestamp;temperature;humidity
21844;DHT22;11084;52.482;9.108;2022-12-13T00:01:53;-7.80;99.90
21844;DHT22;11084;52.482;9.108;2022-12-13T00:04:21;-7.80;99.90
21844;DHT22;11084;52.482;9.108;2022-12-13T00:06:48;-6.70;99.90
21844;DHT22;11084;52.482;9.108;2022-12-13T00:09:17;-7.80;99.90
21844;DHT22;11084;52.482;9.108;2022-12-13T00:11:43;-7.80;99.90
21844;DHT22;11084;52.482;9.108;2022-12-13T00:14:11;-7.80;99.90
21844;DHT22;11084;52.482;9.108;2022-12-13T00:16:39;-7.90;99.90
21844;DHT22;11084;52.482;9.108;2022-12-13T00:19:05;-5.70;99.90
21844;DHT22;11084;52.482;9.108;2022-12-13T00:21:32;-7.90;99.90
21844;DHT22;11084;52.482;9.108;2022-12-13T00:23:59;-8.00;99.90
21844;DHT22;11084;52.482;9.108;2022-12-13T00:26:29;-7.90;99.90
21844;DHT22;11084;52.482;9.108;2022-12-13T00:29:02;-7.90;99.90
21844;DHT22;11084;52.482;9.108;2022-12-13T00:31:29;-7.90;99.90
21844;DHT22;11084;52.482;9.108;2022-12-13T00:33:59;-7.90;99.90
21844;DHT22;11084;52.482;9.108;2022-12-13T00:36:25;-7.90;99.90
21844;DHT22;11084;52.482;9.108;2022-12-13T00:38:52;-8.00;99.90
21844;DHT22;11084;52.482;9.108;2022-12-13T00:41:38;-8.00;99.90
21844;DHT22;11084;52.482;9.108;2022-12-13T00:44:05;-7.30;99.90
21844;DHT22;11084;52.482;9.108;2022-12-13T00:46:31;-8.00;99.90
21844;DHT22;11084;52.482;9.108;2022-12-13T00:48:59;-8.00;99.90
21844;DHT22;11084;52.482;9.108;2022-12-13T00:51:28;-7.90;99.90
21844;DHT22;11084;52.482;9.108;2022-12-13T00:53:55;-8.00;99.90
21844;DHT22;11084;52.482;9.108;2022-12-13T00:56:25;-8.00;99.90
21844;DHT22;11084;52.482;9.108;2022-12-13T00:58:53;-6.30;99.90
21844;DHT22;11084;52.482;9.108;2022-12-13T01:01:25;-8.10;99.90
21844;DHT22;11084;52.482;9.108;2022-12-13T01:03:59;-8.10;99.90
21844;DHT22;11084;52.482;9.108;2022-12-13T01:06:41;-6.20;99.90
21844;DHT22;11084;52.482;9.108;2022-12-13T01:09:18;-8.20;99.90
21844;DHT22;11084;52.482;9.108;2022-12-13T01:11:46;-6.10;99.90
21844;DHT22;11084;52.482;9.108;2022-12-13T01:14:15;-8.20;99.90
21844;DHT22;11084;52.482;9.108;2022-12-13T01:16:41;-8.20;99.90
21844;DHT22;11084;52.482;9.108;2022-12-13T01:19:07;-8.30;99.90
21844;DHT22;11084;52.482;9.108;2022-12-13T01:21:33;-8.30;99.90
21844;DHT22;11084;52.482;9.108;2022-12-13T01:24:04;-8.20;99.90
21844;DHT22;11084;52.482;9.108;2022-12-13T01:26:31;-8.30;99.90
21844;DHT22;11084;52.482;9.108;2022-12-13T01:28:58;-8.20;99.90
21844;DHT22;11084;52.482;9.108;2022-12-13T01:31:24;-8.20;99.90
21844;DHT22;11084;52.482;9.108;2022-12-13T01:33:51;-8.30;99.90
21844;DHT22;11084;52.482;9.108;2022-12-13T01:36:20;-8.30;99.90
21844;DHT22;11084;52.482;9.108;2022-12-13T01:41:18;-8.30;99.90
21844;DHT22;11084;52.482;9.108;2022-12-13T01:46:12;-8.30;99.90
21844;DHT22;11084;52.482;9.108;2022-12-13T01:48:43;-8.30;99.90
21844;DHT22;11084;52.482;9.108;2022-12-13T01:51:19;-8.40;99.90
21844;DHT22;11084;52.482;9.108;2022-12-13T01:53:48;-8.40;99.90
21844;DHT22;11084;52.482;9.108;2022-12-13T01:56:30;-8.40;99.90
21844;DHT22;11084;52.482;9.108;2022-12-13T01:59:10;-8.40;99.90
21844;DHT22;11084;52.482;9.108;2022-12-13T02:01:37;-8.40;99.90
21844;DHT22;11084;52.482;9.108;2022-12-13T02:04:06;-5.70;99.90
21844;DHT22;11084;52.482;9.108;2022-12-13T02:09:02;-8.40;99.90
21844;DHT22;11084;52.482;9.108;2022-12-13T02:11:29;-8.40;99.90
21844;DHT22;11084;52.482;9.108;2022-12-13T02:13:55;-5.90;99.90
21844;DHT22;11084;52.482;9.108;2022-12-13T02:16:38;-4.80;99.90
21844;DHT22;11084;52.482;9.108;2022-12-13T02:30:52;-8.50;99.90
21844;DHT22;11084;52.482;9.108;2022-12-13T02:33:36;-8.50;99.90
21844;DHT22;11084;52.482;9.108;2022-12-13T02:39:27;-8.50;99.90
21844;DHT22;11084;52.482;9.108;2022-12-13T02:42:21;-8.50;99.90
21844;DHT22;11084;52.482;9.108;2022-12-13T02:45:22;-8.40;99.90
21844;DHT22;11084;52.482;9.108;2022-12-13T02:47:55;-8.50;99.90
21844;DHT22;11084;52.482;9.108;2022-12-13T02:50:22;-8.40;99.90
21844;DHT22;11084;52.482;9.108;2022-12-13T02:52:50;-8.50;99.90
21844;DHT22;11084;52.482;9.108;2022-12-13T02:55:17;-8.40;99.90
21844;DHT22;11084;52.482;9.108;2022-12-13T02:57:44;-8.90;99.90
21844;DHT22;11084;52.482;9.108;2022-12-13T03:00:23;-8.50;99.90
21844;DHT22;11084;52.482;9.108;2022-12-13T03:03:26;-8.60;99.90
21844;DHT22;11084;52.482;9.108;2022-12-13T03:06:08;-9.10;99.90
21844;DHT22;11084;52.482;9.108;2022-12-13T03:09:21;-8.60;99.90
21844;DHT22;11084;52.482;9.108;2022-12-13T03:15:17;-8.70;99.90
21844;DHT22;11084;52.482;9.108;2022-12-13T03:17:53;-8.80;99.90
21844;DHT22;11084;52.482;9.108;2022-12-13T03:20:25;-8.60;99.90
21844;DHT22;11084;52.482;9.108;2022-12-13T03:22:53;-8.80;99.90
21844;DHT22;11084;52.482;9.108;2022-12-13T03:25:21;-8.60;99.90
21844;DHT22;11084;52.482;9.108;2022-12-13T03:27:54;-8.50;99.90
21844;DHT22;11084;52.482;9.108;2022-12-13T03:30:22;-8.60;99.90
21844;DHT22;11084;52.482;9.108;2022-12-13T03:32:48;-7.50;99.90
21844;DHT22;11084;52.482;9.108;2022-12-13T03:35:14;-8.60;99.90
21844;DHT22;11084;52.482;9.108;2022-12-13T03:37:40;-7.30;99.90
21844;DHT22;11084;52.482;9.108;2022-12-13T03:40:06;-8.70;99.90
21844;DHT22;11084;52.482;9.108;2022-12-13T03:42:33;-8.70;99.90
21844;DHT22;11084;52.482;9.108;2022-12-13T03:45:00;-8.70;99.90
21844;DHT22;11084;52.482;9.108;2022-12-13T03:47:25;-8.70;99.90
21844;DHT22;11084;52.482;9.108;2022-12-13T03:49:52;-8.70;99.90
21844;DHT22;11084;52.482;9.108;2022-12-13T03:52:20;-8.70;99.90
21844;DHT22;11084;52.482;9.108;2022-12-13T03:54:46;-8.70;99.90
21844;DHT22;11084;52.482;9.108;2022-12-13T04:02:06;-8.70;99.90
21844;DHT22;11084;52.482;9.108;2022-12-13T04:04:32;-8.70;99.90
21844;DHT22;11084;52.482;9.108;2022-12-13T04:06:58;-8.70;99.90
21844;DHT22;11084;52.482;9.108;2022-12-13T04:09:24;-8.60;99.90
21844;DHT22;11084;52.482;9.108;2022-12-13T04:11:50;-8.70;99.90
21844;DHT22;11084;52.482;9.108;2022-12-13T04:14:35;-8.70;99.90
21844;DHT22;11084;52.482;9.108;2022-12-13T04:19:28;-8.50;99.90
21844;DHT22;11084;52.482;9.108;2022-12-13T04:21:54;-8.80;99.90
21844;DHT22;11084;52.482;9.108;2022-12-13T04:24:21;-8.70;99.90
21844;DHT22;11084;52.482;9.108;2022-12-13T04:26:47;-6.00;99.90
21844;DHT22;11084;52.482;9.108;2022-12-13T04:29:13;-8.70;99.90
21844;DHT22;11084;52.482;9.108;2022-12-13T04:31:39;-8.70;99.90
21844;DHT22;11084;52.482;9.108;2022-12-13T04:34:06;-8.80;99.90
21844;DHT22;11084;52.482;9.108;2022-12-13T04:36:32;-8.70;99.90
21844;DHT22;11084;52.482;9.108;2022-12-13T04:39:03;-8.70;99.90
21844;DHT22;11084;52.482;9.108;2022-12-13T04:41:35;-8.70;99.90
21844;DHT22;11084;52.482;9.108;2022-12-13T04:44:04;-8.70;99.90
21844;DHT22;11084;52.482;9.108;2022-12-13T04:46:31;-8.80;99.90
21844;DHT22;11084;52.482;9.108;2022-12-13T04:48:58;-8.70;99.90
21844;DHT22;11084;52.482;9.108;2022-12-13T04:51:26;-8.70;99.90
21844;DHT22;11084;52.482;9.108;2022-12-13T04:53:52;-8.70;99.90
21844;DHT22;11084;52.482;9.108;2022-12-13T04:56:18;-8.70;99.90
21844;DHT22;11084;52.482;9.108;2022-12-13T04:58:45;-8.80;99.90
21844;DHT22;11084;52.482;9.108;2022-12-13T05:01:12;-8.70;99.90
21844;DHT22;11084;52.482;9.108;2022-12-13T05:03:38;-8.80;99.90
21844;DHT22;11084;52.482;9.108;2022-12-13T05:06:09;-8.90;99.90
21844;DHT22;11084;52.482;9.108;2022-12-13T05:08:37;-8.80;99.90
21844;DHT22;11084;52.482;9.108;2022-12-13T05:13:30;-8.70;99.90
21844;DHT22;11084;52.482;9.108;2022-12-13T05:15:57;-8.80;99.90
21844;DHT22;11084;52.482;9.108;2022-12-13T05:18:25;-8.80;99.90
21844;DHT22;11084;52.482;9.108;2022-12-13T05:20:51;-8.80;99.90
21844;DHT22;11084;52.482;9.108;2022-12-13T05:23:19;-7.10;99.90
21844;DHT22;11084;52.482;9.108;2022-12-13T05:25:46;-6.40;99.90
21844;DHT22;11084;52.482;9.108;2022-12-13T05:28:12;-5.10;99.90
21844;DHT22;11084;52.482;9.108;2022-12-13T05:30:41;-5.00;99.90
21844;DHT22;11084;52.482;9.108;2022-12-13T05:33:07;-8.70;99.90
21844;DHT22;11084;52.482;9.108;2022-12-13T05:35:34;-8.80;99.90
21844;DHT22;11084;52.482;9.108;2022-12-13T05:38:00;-8.70;99.90
21844;DHT22;11084;52.482;9.108;2022-12-13T05:40:28;-8.80;99.90
21844;DHT22;11084;52.482;9.108;2022-12-13T05:42:55;-8.80;99.90
21844;DHT22;11084;52.482;9.108;2022-12-13T05:45:21;-8.80;99.90
21844;DHT22;11084;52.482;9.108;2022-12-13T05:47:50;-7.00;99.90
21844;DHT22;11084;52.482;9.108;2022-12-13T05:50:16;-8.80;99.90
21844;DHT22;11084;52.482;9.108;2022-12-13T05:52:44;-8.80;99.90
21844;DHT22;11084;52.482;9.108;2022-12-13T05:55:10;-8.80;99.90
21844;DHT22;11084;52.482;9.108;2022-12-13T05:57:37;-8.80;99.90
21844;DHT22;11084;52.482;9.108;2022-12-13T06:00:05;-8.80;99.90
21844;DHT22;11084;52.482;9.108;2022-12-13T06:02:42;-8.70;99.90
21844;DHT22;11084;52.482;9.108;2022-12-13T06:05:09;-8.80;99.90
21844;DHT22;11084;52.482;9.108;2022-12-13T06:07:36;-8.80;99.90
21844;DHT22;11084;52.482;9.108;2022-12-13T06:10:04;-8.80;99.90
21844;DHT22;11084;52.482;9.108;2022-12-13T06:12:33;-8.80;99.90
21844;DHT22;11084;52.482;9.108;2022-12-13T06:17:32;-8.70;99.90
21844;DHT22;11084;52.482;9.108;2022-12-13T06:20:01;-8.60;99.90
21844;DHT22;11084;52.482;9.108;2022-12-13T06:22:28;-8.70;99.90
21844;DHT22;11084;52.482;9.108;2022-12-13T06:24:54;-8.60;99.90
21844;DHT22;11084;52.482;9.108;2022-12-13T06:27:20;-8.70;99.90
21844;DHT22;11084;52.482;9.108;2022-12-13T06:29:46;-8.60;99.90
21844;DHT22;11084;52.482;9.108;2022-12-13T06:32:12;-8.70;99.90
21844;DHT22;11084;52.482;9.108;2022-12-13T06:34:38;-8.60;99.90
21844;DHT22;11084;52.482;9.108;2022-12-13T06:37:06;-4.90;99.90
21844;DHT22;11084;52.482;9.108;2022-12-13T06:39:34;-8.60;99.90
21844;DHT22;11084;52.482;9.108;2022-12-13T06:42:05;-8.50;99.90
21844;DHT22;11084;52.482;9.108;2022-12-13T06:44:34;-8.50;99.90
21844;DHT22;11084;52.482;9.108;2022-12-13T06:47:00;-7.40;99.90
21844;DHT22;11084;52.482;9.108;2022-12-13T06:49:26;-8.50;99.90
21844;DHT22;11084;52.482;9.108;2022-12-13T06:51:52;-8.50;99.90
21844;DHT22;11084;52.482;9.108;2022-12-13T06:54:19;-8.40;99.90
21844;DHT22;11084;52.482;9.108;2022-12-13T06:56:45;-8.50;99.90
21844;DHT22;11084;52.482;9.108;2022-12-13T06:59:11;-8.40;99.90
21844;DHT22;11084;52.482;9.108;2022-12-13T07:01:37;-8.40;99.90
21844;DHT22;11084;52.482;9.108;2022-12-13T07:04:04;-8.40;99.90
21844;DHT22;11084;52.482;9.108;2022-12-13T07:06:31;-8.40;99.90
21844;DHT22;11084;52.482;9.108;2022-12-13T07:08:57;-8.40;99.90
21844;DHT22;11084;52.482;9.108;2022-12-13T07:11:25;-8.40;99.90
21844;DHT22;11084;52.482;9.108;2022-12-13T07:13:53;-8.40;99.90
21844;DHT22;11084;52.482;9.108;2022-12-13T07:16:20;-8.40;99.90
21844;DHT22;11084;52.482;9.108;2022-12-13T07:18:47;-8.40;99.90
21844;DHT22;11084;52.482;9.108;2022-12-13T07:21:13;-8.40;99.90
21844;DHT22;11084;52.482;9.108;2022-12-13T07:23:40;-8.40;99.90
21844;DHT22;11084;52.482;9.108;2022-12-13T07:26:07;-5.60;99.90
21844;DHT22;11084;52.482;9.108;2022-12-13T07:28:35;-8.40;99.90
21844;DHT22;11084;52.482;9.108;2022-12-13T07:31:04;-8.70;99.90
21844;DHT22;11084;52.482;9.108;2022-12-13T07:33:31;-8.30;99.90
21844;DHT22;11084;52.482;9.108;2022-12-13T07:36:01;-8.40;99.90
21844;DHT22;11084;52.482;9.108;2022-12-13T07:38:32;-7.20;99.90
21844;DHT22;11084;52.482;9.108;2022-12-13T07:40:59;-8.30;99.90
21844;DHT22;11084;52.482;9.108;2022-12-13T07:43:25;-8.20;99.90
21844;DHT22;11084;52.482;9.108;2022-12-13T07:45:51;-7.20;99.90
21844;DHT22;11084;52.482;9.108;2022-12-13T07:48:18;-7.90;99.90
21844;DHT22;11084;52.482;9.108;2022-12-13T07:50:44;-7.50;99.90
21844;DHT22;11084;52.482;9.108;2022-12-13T07:53:14;-7.40;99.90
21844;DHT22;11084;52.482;9.108;2022-12-13T07:55:40;-7.00;99.90
21844;DHT22;11084;52.482;9.108;2022-12-13T07:58:11;-6.80;99.90
21844;DHT22;11084;52.482;9.108;2022-12-13T08:00:43;-6.50;99.90
21844;DHT22;11084;52.482;9.108;2022-12-13T08:03:10;-6.20;99.90
21844;DHT22;11084;52.482;9.108;2022-12-13T08:05:39;-5.70;99.90
21844;DHT22;11084;52.482;9.108;2022-12-13T08:08:08;-5.00;99.90
21844;DHT22;11084;52.482;9.108;2022-12-13T08:10:35;-5.00;99.90
21844;DHT22;11084;52.482;9.108;2022-12-13T08:13:02;-4.20;99.90
21844;DHT22;11084;52.482;9.108;2022-12-13T08:15:29;-3.10;99.90
21844;DHT22;11084;52.482;9.108;2022-12-13T08:17:56;-2.80;99.90
21844;DHT22;11084;52.482;9.108;2022-12-13T08:20:22;-2.10;99.90
21844;DHT22;11084;52.482;9.108;2022-12-13T08:22:55;-1.20;99.90
21844;DHT22;11084;52.482;9.108;2022-12-13T08:25:22;-0.80;99.90
21844;DHT22;11084;52.482;9.108;2022-12-13T08:27:49;-0.40;99.90
21844;DHT22;11084;52.482;9.108;2022-12-13T08:30:16;0.10;99.90
21844;DHT22;11084;52.482;9.108;2022-12-13T08:32:43;0.50;99.90
21844;DHT22;11084;52.482;9.108;2022-12-13T08:35:09;0.60;99.90
21844;DHT22;11084;52.482;9.108;2022-12-13T08:37:35;0.00;99.90
21844;DHT22;11084;52.482;9.108;2022-12-13T08:40:02;-0.60;99.90
21844;DHT22;11084;52.482;9.108;2022-12-13T08:42:32;-1.10;99.90
21844;DHT22;11084;52.482;9.108;2022-12-13T08:44:58;-1.50;99.90
21844;DHT22;11084;52.482;9.108;2022-12-13T08:47:25;-1.90;99.90
21844;DHT22;11084;52.482;9.108;2022-12-13T08:49:53;-2.00;99.90
21844;DHT22;11084;52.482;9.108;2022-12-13T08:52:23;-2.50;99.90
21844;DHT22;11084;52.482;9.108;2022-12-13T08:54:50;-2.70;99.90
21844;DHT22;11084;52.482;9.108;2022-12-13T08:57:16;-2.90;99.90
21844;DHT22;11084;52.482;9.108;2022-12-13T08:59:44;-2.80;99.90
21844;DHT22;11084;52.482;9.108;2022-12-13T09:02:13;-2.00;99.90
21844;DHT22;11084;52.482;9.108;2022-12-13T09:09:34;-3.40;99.90
21844;DHT22;11084;52.482;9.108;2022-12-13T09:12:00;-3.40;99.90
21844;DHT22;11084;52.482;9.108;2022-12-13T09:14:27;-2.50;99.90
21844;DHT22;11084;52.482;9.108;2022-12-13T09:16:53;-3.40;99.90
21844;DHT22;11084;52.482;9.108;2022-12-13T09:19:19;-3.30;99.90
21844;DHT22;11084;52.482;9.108;2022-12-13T09:21:46;-3.50;99.90
21844;DHT22;11084;52.482;9.108;2022-12-13T09:24:13;-3.60;99.90
21844;DHT22;11084;52.482;9.108;2022-12-13T09:26:40;-3.60;99.90
21844;DHT22;11084;52.482;9.108;2022-12-13T09:29:06;-3.70;99.90
21844;DHT22;11084;52.482;9.108;2022-12-13T09:31:32;-3.60;99.90
21844;DHT22;11084;52.482;9.108;2022-12-13T09:36:26;-3.50;99.90
21844;DHT22;11084;52.482;9.108;2022-12-13T09:44:43;-3.50;99.90
21844;DHT22;11084;52.482;9.108;2022-12-13T09:46:48;-2.80;99.90
21844;DHT22;11084;52.482;9.108;2022-12-13T09:49:37;-3.10;99.90
21844;DHT22;11084;52.482;9.108;2022-12-13T09:52:12;-3.50;99.90
21844;DHT22;11084;52.482;9.108;2022-12-13T09:54:40;-3.10;99.90
21844;DHT22;11084;52.482;9.108;2022-12-13T09:57:24;-3.40;99.90
21844;DHT22;11084;52.482;9.108;2022-12-13T09:59:52;-3.40;99.90
21844;DHT22;11084;52.482;9.108;2022-12-13T10:02:27;-3.10;99.90
21844;DHT22;11084;52.482;9.108;2022-12-13T10:05:02;-5.10;99.90
21844;DHT22;11084;52.482;9.108;2022-12-13T10:07:54;-3.20;99.90
21844;DHT22;11084;52.482;9.108;2022-12-13T10:10:23;-2.10;99.90
21844;DHT22;11084;52.482;9.108;2022-12-13T10:13:15;-3.10;99.90
21844;DHT22;11084;52.482;9.108;2022-12-13T10:15:49;-3.00;99.90
21844;DHT22;11084;52.482;9.108;2022-12-13T10:18:39;-3.00;99.90
21844;DHT22;11084;52.482;9.108;2022-12-13T10:21:28;-3.00;99.90
21844;DHT22;11084;52.482;9.108;2022-12-13T10:24:18;-3.00;99.90
21844;DHT22;11084;52.482;9.108;2022-12-13T10:27:13;-2.90;99.90
21844;DHT22;11084;52.482;9.108;2022-12-13T10:32:51;-2.80;99.90
21844;DHT22;11084;52.482;9.108;2022-12-13T10:38:25;-2.60;99.90
21844;DHT22;11084;52.482;9.108;2022-12-13T10:40:52;-2.60;99.90
21844;DHT22;11084;52.482;9.108;2022-12-13T10:43:19;-2.20;99.90
21844;DHT22;11084;52.482;9.108;2022-12-13T10:48:34;-2.50;99.90
21844;DHT22;11084;52.482;9.108;2022-12-13T10:51:17;-2.40;99.90
21844;DHT22;11084;52.482;9.108;2022-12-13T10:53:51;-2.40;99.90
21844;DHT22;11084;52.482;9.108;2022-12-13T10:56:20;-2.40;99.90
21844;DHT22;11084;52.482;9.108;2022-12-13T10:59:07;-2.30;99.90
21844;DHT22;11084;52.482;9.108;2022-12-13T11:01:47;-2.00;99.90
21844;DHT22;11084;52.482;9.108;2022-12-13T11:04:30;-2.30;99.90
21844;DHT22;11084;52.482;9.108;2022-12-13T11:07:00;-2.10;99.90
21844;DHT22;11084;52.482;9.108;2022-12-13T11:09:47;-1.80;99.90
21844;DHT22;11084;52.482;9.108;2022-12-13T11:12:17;-2.20;99.90
21844;DHT22;11084;52.482;9.108;2022-12-13T11:14:58;-2.10;99.90
21844;DHT22;11084;52.482;9.108;2022-12-13T11:17:29;-2.10;99.90
21844;DHT22;11084;52.482;9.108;2022-12-13T11:20:01;-2.00;99.90
21844;DHT22;11084;52.482;9.108;2022-12-13T11:22:32;-2.00;99.90
21844;DHT22;11084;52.482;9.108;2022-12-13T11:25:08;-2.10;99.90
21844;DHT22;11084;52.482;9.108;2022-12-13T11:39:31;-1.80;99.90
21844;DHT22;11084;52.482;9.108;2022-12-13T11:50:37;-1.80;99.90
21844;DHT22;11084;52.482;9.108;2022-12-13T12:02:30;-1.70;99.90
21844;DHT22;11084;52.482;9.108;2022-12-13T12:05:03;-1.70;99.90
21844;DHT22;11084;52.482;9.108;2022-12-13T12:07:42;-1.60;99.90
21844;DHT22;11084;52.482;9.108;2022-12-13T12:10:40;-1.60;99.90
21844;DHT22;11084;52.482;9.108;2022-12-13T12:13:22;-1.60;99.90
21844;DHT22;11084;52.482;9.108;2022-12-13T12:16:09;-1.60;99.90
21844;DHT22;11084;52.482;9.108;2022-12-13T12:18:39;-1.50;99.90
21844;DHT22;11084;52.482;9.108;2022-12-13T12:21:28;-1.50;99.90
21844;DHT22;11084;52.482;9.108;2022-12-13T12:38:34;-1.50;99.90
21844;DHT22;11084;52.482;9.108;2022-12-13T13:04:15;-1.40;99.90
21844;DHT22;11084;52.482;9.108;2022-12-13T13:06:46;-1.40;99.90
21844;DHT22;11084;52.482;9.108;2022-12-13T13:09:17;-1.40;99.90
21844;DHT22;11084;52.482;9.108;2022-12-13T13:11:45;-1.40;99.90
21844;DHT22;11084;52.482;9.108;2022-12-13T13:14:35;-1.30;99.90
21844;DHT22;11084;52.482;9.108;2022-12-13T13:19:52;-1.30;99.90
21844;DHT22;11084;52.482;9.108;2022-12-13T13:27:40;-1.40;99.90
21844;DHT22;11084;52.482;9.108;2022-12-13T13:30:20;-1.60;99.90
21844;DHT22;11084;52.482;9.108;2022-12-13T13:32:49;-1.40;99.90
21844;DHT22;11084;52.482;9.108;2022-12-13T13:38:02;-1.50;99.90
21844;DHT22;11084;52.482;9.108;2022-12-13T13:40:30;-1.50;99.90
21844;DHT22;11084;52.482;9.108;2022-12-13T13:46:07;-1.50;99.90
21844;DHT22;11084;52.482;9.108;2022-12-13T13:49:00;-1.50;99.90
21844;DHT22;11084;52.482;9.108;2022-12-13T14:03:40;-1.50;99.90
21844;DHT22;11084;52.482;9.108;2022-12-13T14:10:30;-1.50;99.90
21844;DHT22;11084;52.482;9.108;2022-12-13T14:28:07;-1.70;99.90
21844;DHT22;11084;52.482;9.108;2022-12-13T14:30:34;-1.70;99.90
21844;DHT22;11084;52.482;9.108;2022-12-13T14:33:04;-1.70;99.90
21844;DHT22;11084;52.482;9.108;2022-12-13T14:35:33;-1.80;99.90
21844;DHT22;11084;52.482;9.108;2022-12-13T14:38:04;-1.30;99.90
21844;DHT22;11084;52.482;9.108;2022-12-13T14:40:39;-1.90;99.90
21844;DHT22;11084;52.482;9.108;2022-12-13T14:43:23;-2.00;99.90
21844;DHT22;11084;52.482;9.108;2022-12-13T14:46:00;-2.00;99.90
21844;DHT22;11084;52.482;9.108;2022-12-13T14:48:41;-2.00;99.90
21844;DHT22;11084;52.482;9.108;2022-12-13T14:51:41;-2.10;99.90
21844;DHT22;11084;52.482;9.108;2022-12-13T14:54:18;-1.90;99.90
21844;DHT22;11084;52.482;9.108;2022-12-13T14:57:01;-2.20;99.90
21844;DHT22;11084;52.482;9.108;2022-12-13T14:59:28;-2.30;99.90
21844;DHT22;11084;52.482;9.108;2022-12-13T15:02:00;-2.30;99.90
21844;DHT22;11084;52.482;9.108;2022-12-13T15:04:32;-2.30;99.90
21844;DHT22;11084;52.482;9.108;2022-12-13T15:10:44;-2.50;99.90
21844;DHT22;11084;52.482;9.108;2022-12-13T15:13:07;-2.50;99.90
21844;DHT22;11084;52.482;9.108;2022-12-13T15:15:51;-2.20;99.90
21844;DHT22;11084;52.482;9.108;2022-12-13T15:18:22;-2.70;99.90
21844;DHT22;11084;52.482;9.108;2022-12-13T15:20:53;-2.60;99.90
21844;DHT22;11084;52.482;9.108;2022-12-13T15:23:35;-2.80;99.90
21844;DHT22;11084;52.482;9.108;2022-12-13T15:26:16;-2.80;99.90
21844;DHT22;11084;52.482;9.108;2022-12-13T15:28:48;-2.90;99.90
21844;DHT22;11084;52.482;9.108;2022-12-13T15:31:18;-3.10;99.90
21844;DHT22;11084;52.482;9.108;2022-12-13T15:33:45;-3.10;99.90
21844;DHT22;11084;52.482;9.108;2022-12-13T15:36:20;-3.10;99.90
21844;DHT22;11084;52.482;9.108;2022-12-13T15:41:29;-3.20;99.90
21844;DHT22;11084;52.482;9.108;2022-12-13T15:44:19;-3.20;99.90
21844;DHT22;11084;52.482;9.108;2022-12-13T15:46:49;-3.30;99.90
21844;DHT22;11084;52.482;9.108;2022-12-13T15:50:00;-3.30;99.90
21844;DHT22;11084;52.482;9.108;2022-12-13T15:52:37;-3.40;99.90
21844;DHT22;11084;52.482;9.108;2022-12-13T15:57:50;-3.50;99.90
21844;DHT22;11084;52.482;9.108;2022-12-13T16:00:31;-3.70;99.90
21844;DHT22;11084;52.482;9.108;2022-12-13T16:03:10;-3.70;99.90
21844;DHT22;11084;52.482;9.108;2022-12-13T16:05:42;-3.70;99.90
21844;DHT22;11084;52.482;9.108;2022-12-13T16:08:32;-3.80;99.90
21844;DHT22;11084;52.482;9.108;2022-12-13T16:11:01;-3.90;99.90
21844;DHT22;11084;52.482;9.108;2022-12-13T16:13:29;-3.90;99.90
21844;DHT22;11084;52.482;9.108;2022-12-13T16:15:59;-4.00;99.90
21844;DHT22;11084;52.482;9.108;2022-12-13T16:18:31;-4.10;99.90
21844;DHT22;11084;52.482;9.108;2022-12-13T16:20:58;-4.10;99.90
21844;DHT22;11084;52.482;9.108;2022-12-13T16:23:27;-4.20;99.90
21844;DHT22;11084;52.482;9.108;2022-12-13T16:25:53;-4.20;99.90
21844;DHT22;11084;52.482;9.108;2022-12-13T16:28:19;-4.30;99.90
21844;DHT22;11084;52.482;9.108;2022-12-13T16:31:01;-4.30;99.90
21844;DHT22;11084;52.482;9.108;2022-12-13T16:33:33;-4.30;99.90
21844;DHT22;11084;52.482;9.108;2022-12-13T16:36:00;-3.40;99.90
21844;DHT22;11084;52.482;9.108;2022-12-13T16:40:54;-4.50;99.90
21844;DHT22;11084;52.482;9.108;2022-12-13T16:43:24;-4.20;99.90
21844;DHT22;11084;52.482;9.108;2022-12-13T16:45:52;-4.60;99.90
21844;DHT22;11084;52.482;9.108;2022-12-13T16:48:20;-3.00;99.90
21844;DHT22;11084;52.482;9.108;2022-12-13T16:50:52;-4.70;99.90
21844;DHT22;11084;52.482;9.108;2022-12-13T16:53:18;-4.70;99.90
21844;DHT22;11084;52.482;9.108;2022-12-13T16:55:44;-2.80;99.90
21844;DHT22;11084;52.482;9.108;2022-12-13T16:58:15;-4.90;99.90
21844;DHT22;11084;52.482;9.108;2022-12-13T17:00:43;-4.90;99.90
21844;DHT22;11084;52.482;9.108;2022-12-13T17:03:13;-5.00;99.90
21844;DHT22;11084;52.482;9.108;2022-12-13T17:05:40;-4.90;99.90
21844;DHT22;11084;52.482;9.108;2022-12-13T17:08:10;-5.10;99.90
21844;DHT22;11084;52.482;9.108;2022-12-13T17:10:38;-5.10;99.90
21844;DHT22;11084;52.482;9.108;2022-12-13T17:13:05;-5.20;99.90
21844;DHT22;11084;52.482;9.108;2022-12-13T17:15:31;-4.80;99.90
21844;DHT22;11084;52.482;9.108;2022-12-13T17:17:57;-5.30;99.90
21844;DHT22;11084;52.482;9.108;2022-12-13T17:20:23;-5.30;99.90
21844;DHT22;11084;52.482;9.108;2022-12-13T17:22:49;-5.40;99.90
21844;DHT22;11084;52.482;9.108;2022-12-13T17:25:16;-6.00;99.90
21844;DHT22;11084;52.482;9.108;2022-12-13T17:27:42;-5.30;99.90
21844;DHT22;11084;52.482;9.108;2022-12-13T17:30:13;-5.40;99.90
21844;DHT22;11084;52.482;9.108;2022-12-13T17:32:40;-5.50;99.90
21844;DHT22;11084;52.482;9.108;2022-12-13T17:37:32;-5.50;99.90
21844;DHT22;11084;52.482;9.108;2022-12-13T17:39:58;-3.50;99.90
21844;DHT22;11084;52.482;9.108;2022-12-13T17:42:24;-2.90;99.90
21844;DHT22;11084;52.482;9.108;2022-12-13T17:44:52;-2.60;99.90
21844;DHT22;11084;52.482;9.108;2022-12-13T17:47:18;-5.60;99.90
21844;DHT22;11084;52.482;9.108;2022-12-13T17:49:44;-5.30;99.90
21844;DHT22;11084;52.482;9.108;2022-12-13T17:52:10;-5.70;99.90
21844;DHT22;11084;52.482;9.108;2022-12-13T17:54:36;-5.70;99.90
21844;DHT22;11084;52.482;9.108;2022-12-13T17:57:03;-5.80;99.90
21844;DHT22;11084;52.482;9.108;2022-12-13T17:59:29;-5.80;99.90
21844;DHT22;11084;52.482;9.108;2022-12-13T18:06:49;-5.90;99.90
21844;DHT22;11084;52.482;9.108;2022-12-13T18:09:16;-5.90;99.90
21844;DHT22;11084;52.482;9.108;2022-12-13T18:11:42;-5.10;99.90
21844;DHT22;11084;52.482;9.108;2022-12-13T18:14:08;-3.70;99.90
21844;DHT22;11084;52.482;9.108;2022-12-13T18:16:34;-5.90;99.90
21844;DHT22;11084;52.482;9.108;2022-12-13T18:19:02;-6.00;99.90
21844;DHT22;11084;52.482;9.108;2022-12-13T18:23:58;-6.00;99.90
21844;DHT22;11084;52.482;9.108;2022-12-13T18:26:24;-6.00;99.90
21844;DHT22;11084;52.482;9.108;2022-12-13T18:28:50;-6.10;99.90
21844;DHT22;11084;52.482;9.108;2022-12-13T18:31:19;-6.10;99.90
21844;DHT22;11084;52.482;9.108;2022-12-13T18:33:48;-6.10;99.90
21844;DHT22;11084;52.482;9.108;2022-12-13T18:36:15;-6.20;99.90
21844;DHT22;11084;52.482;9.108;2022-12-13T18:38:42;-6.10;99.90
21844;DHT22;11084;52.482;9.108;2022-12-13T18:41:14;-6.20;99.90
21844;DHT22;11084;52.482;9.108;2022-12-13T18:43:42;-6.30;99.90
21844;DHT22;11084;52.482;9.108;2022-12-13T18:46:10;-6.40;99.90
21844;DHT22;11084;52.482;9.108;2022-12-13T18:48:37;-6.50;99.90
21844;DHT22;11084;52.482;9.108;2022-12-13T18:51:04;-6.40;99.90
21844;DHT22;11084;52.482;9.108;2022-12-13T18:53:33;-6.40;99.90
21844;DHT22;11084;52.482;9.108;2022-12-13T18:56:03;-6.50;99.90
21844;DHT22;11084;52.482;9.108;2022-12-13T19:01:02;-6.50;99.90
21844;DHT22;11084;52.482;9.108;2022-12-13T19:03:29;-6.10;99.90
21844;DHT22;11084;52.482;9.108;2022-12-13T19:05:57;-5.30;99.90
21844;DHT22;11084;52.482;9.108;2022-12-13T19:08:25;-6.60;99.90